Time;durP1;ratioP1;P1;durP2;ratioP2;P2;SDS_P1;SDS_P2;PMS_P1;PMS_P2;Temp;Humidity;BMP_temperature;BMP_pressure;BME280_temperature;BME280_humidity;BME280_pressure;Samples;Min_cycle;Max_cycle;Signal;HPM_P1;HPM_P2
2022/10/17 00:00:47;;;;;;;15.50;7.88;;;;;;;;;;4989173;28;20478;-67
2022/10/17 00:03:13;;;;;;;20.90;9.25;;;;;;;;;;4989312;28;20519;-67
2022/10/17 00:05:44;;;;;;;16.17;8.55;;;;;;;;;;4986503;28;20444;-67
2022/10/17 00:08:10;;;;;;;17.50;8.55;;;;;;;;;;4988789;28;20383;-67
2022/10/17 00:10:36;;;;;;;14.43;9.30;;;;;;;;;;4986267;28;20159;-67
2022/10/17 00:13:02;;;;;;;14.43;7.43;;;;;;;;;;4986565;28;20101;-67
2022/10/17 00:15:27;;;;;;;11.85;8.05;;;;;;;;;;4988830;28;20064;-67
2022/10/17 00:17:52;;;;;;;20.20;8.43;;;;;;;;;;4988044;28;20103;-67
2022/10/17 00:20:18;;;;;;;16.50;7.80;;;;;;;;;;4987884;28;20442;-67
2022/10/17 00:22:43;;;;;;;14.02;7.88;;;;;;;;;;4988980;28;20435;-67
2022/10/17 00:25:09;;;;;;;16.52;8.60;;;;;;;;;;4987671;28;20048;-67
2022/10/17 00:27:39;;;;;;;13.88;8.82;;;;;;;;;;4987588;28;20517;-67
2022/10/17 00:30:06;;;;;;;16.02;8.00;;;;;;;;;;4987631;28;20444;-67
2022/10/17 00:32:31;;;;;;;17.27;8.63;;;;;;;;;;4969977;28;20448;-67
2022/10/17 00:34:57;;;;;;;15.25;8.85;;;;;;;;;;4989319;28;20443;-67
2022/10/17 00:37:22;;;;;;;13.65;8.57;;;;;;;;;;4969929;28;20096;-67
2022/10/17 00:39:47;;;;;;;15.68;8.02;;;;;;;;;;4987625;28;20348;-67
2022/10/17 00:42:13;;;;;;;18.65;9.45;;;;;;;;;;4988386;28;20460;-67
2022/10/17 00:44:41;;;;;;;21.17;7.72;;;;;;;;;;4988212;28;20410;-67
2022/10/17 00:47:13;;;;;;;23.48;8.23;;;;;;;;;;4987726;28;20513;-67
2022/10/17 00:49:39;;;;;;;22.58;8.48;;;;;;;;;;4988515;28;20370;-67
2022/10/17 00:52:25;;;;;;;14.18;8.05;;;;;;;;;;4985972;28;20029;-67
2022/10/17 00:54:54;;;;;;;15.65;7.97;;;;;;;;;;4987624;28;20503;-67
2022/10/17 00:57:20;;;;;;;13.93;8.20;;;;;;;;;;4987685;28;20344;-67
2022/10/17 00:59:48;;;;;;;14.90;8.45;;;;;;;;;;4991462;28;20122;-67
2022/10/17 01:02:16;;;;;;;17.05;8.32;;;;;;;;;;4995814;28;20469;-67
2022/10/17 01:04:44;;;;;;;13.98;7.88;;;;;;;;;;4993106;28;20390;-67
2022/10/17 01:07:09;;;;;;;15.35;8.35;;;;;;;;;;4993112;28;20427;-67
2022/10/17 01:09:35;;;;;;;12.25;7.05;;;;;;;;;;4992970;28;20025;-67
2022/10/17 01:12:39;;;;;;;10.75;7.03;;;;;;;;;;5009709;28;20056;-67
2022/10/17 01:15:25;;;;;;;12.93;7.45;;;;;;;;;;5011458;28;20056;-67
2022/10/17 01:17:58;;;;;;;13.05;8.10;;;;;;;;;;4992752;28;20107;-67
2022/10/17 01:20:42;;;;;;;16.65;7.28;;;;;;;;;;5010811;28;20466;-67
2022/10/17 01:23:41;;;;;;;13.45;7.63;;;;;;;;;;5011988;28;20471;-67
2022/10/17 01:26:39;;;;;;;16.42;8.30;;;;;;;;;;4976166;28;20495;-67
2022/10/17 01:29:10;;;;;;;13.98;7.78;;;;;;;;;;4990803;28;20384;-66
2022/10/17 01:31:44;;;;;;;12.70;7.57;;;;;;;;;;4990795;28;20106;-67
2022/10/17 01:34:32;;;;;;;15.75;8.32;;;;;;;;;;4956371;28;20033;-67
2022/10/17 01:37:15;;;;;;;10.65;6.82;;;;;;;;;;4973237;28;20477;-67
2022/10/17 01:39:51;;;;;;;19.40;7.75;;;;;;;;;;4972585;28;20096;-67
2022/10/17 01:42:38;;;;;;;13.45;7.75;;;;;;;;;;4972684;28;20108;-67
2022/10/17 01:45:15;;;;;;;14.05;8.05;;;;;;;;;;4990645;28;20329;-67
2022/10/17 01:47:41;;;;;;;13.35;7.90;;;;;;;;;;4972490;28;20167;-67
2022/10/17 01:50:12;;;;;;;14.10;8.57;;;;;;;;;;4972909;28;20029;-67
2022/10/17 01:52:44;;;;;;;12.98;8.13;;;;;;;;;;4992465;28;20360;-67
2022/10/17 01:55:13;;;;;;;17.95;8.25;;;;;;;;;;4972416;28;20450;-67
2022/10/17 01:57:46;;;;;;;13.65;8.52;;;;;;;;;;4972541;28;20419;-67
2022/10/17 02:00:18;;;;;;;12.85;8.15;;;;;;;;;;4973357;28;20037;-67
2022/10/17 02:02:45;;;;;;;12.73;7.88;;;;;;;;;;4972129;28;20455;-67
2022/10/17 02:05:11;;;;;;;10.45;7.00;;;;;;;;;;4973014;28;20494;-67
2022/10/17 02:07:36;;;;;;;14.45;7.90;;;;;;;;;;4990289;28;20475;-67
2022/10/17 02:10:03;;;;;;;17.48;7.30;;;;;;;;;;4989749;28;20473;-67
2022/10/17 02:12:36;;;;;;;14.73;8.07;;;;;;;;;;4990154;28;20346;-67
2022/10/17 02:15:05;;;;;;;14.95;7.82;;;;;;;;;;4972660;28;20736;-67
2022/10/17 02:17:55;;;;;;;11.48;7.80;;;;;;;;;;4990241;28;20397;-67
2022/10/17 02:20:23;;;;;;;15.65;7.80;;;;;;;;;;4990346;28;20053;-67
2022/10/17 02:22:48;;;;;;;16.50;7.15;;;;;;;;;;4972055;28;20032;-67
2022/10/17 02:25:20;;;;;;;14.07;7.50;;;;;;;;;;4990159;28;20514;-67
2022/10/17 02:27:55;;;;;;;13.05;7.75;;;;;;;;;;4989571;28;20061;-67
2022/10/17 02:30:35;;;;;;;15.30;7.10;;;;;;;;;;4955166;28;20463;-67
2022/10/17 02:33:27;;;;;;;13.70;7.95;;;;;;;;;;4971733;28;20474;-67
2022/10/17 02:35:53;;;;;;;12.48;7.40;;;;;;;;;;4962302;28;20375;-67
2022/10/17 02:38:20;;;;;;;12.70;7.97;;;;;;;;;;4971702;28;20506;-67
2022/10/17 02:40:48;;;;;;;18.90;8.00;;;;;;;;;;4971672;28;20352;-67
2022/10/17 02:43:13;;;;;;;16.15;8.52;;;;;;;;;;4971685;28;20304;-67
2022/10/17 02:45:39;;;;;;;11.55;7.32;;;;;;;;;;4989376;28;20343;-67
2022/10/17 02:48:08;;;;;;;12.20;7.57;;;;;;;;;;4955311;28;20304;-67
2022/10/17 02:50:56;;;;;;;11.35;7.70;;;;;;;;;;4973034;28;20493;-67
2022/10/17 02:53:57;;;;;;;16.40;7.60;;;;;;;;;;4972353;28;20128;-67
2022/10/17 02:56:24;;;;;;;12.88;7.40;;;;;;;;;;4986481;28;20286;-67
2022/10/17 02:58:53;;;;;;;11.45;6.78;;;;;;;;;;4971183;28;20198;-67
2022/10/17 03:01:18;;;;;;;12.70;8.65;;;;;;;;;;4989318;28;20402;-67
2022/10/17 03:03:44;;;;;;;12.75;7.15;;;;;;;;;;4970961;28;20379;-67
2022/10/17 03:06:09;;;;;;;16.10;7.40;;;;;;;;;;4989186;28;20321;-67
2022/10/17 03:08:34;;;;;;;11.88;6.97;;;;;;;;;;4989351;28;20388;-67
2022/10/17 03:11:00;;;;;;;12.90;6.68;;;;;;;;;;4988899;28;20371;-67
2022/10/17 03:13:25;;;;;;;10.82;7.40;;;;;;;;;;4990692;28;20293;-67
2022/10/17 03:15:50;;;;;;;13.73;7.82;;;;;;;;;;4989713;28;20444;-67
2022/10/17 03:18:16;;;;;;;11.65;7.80;;;;;;;;;;4990673;28;20462;-67
2022/10/17 03:20:41;;;;;;;11.02;7.28;;;;;;;;;;4988230;28;20466;-67
2022/10/17 03:23:06;;;;;;;14.90;6.97;;;;;;;;;;4989072;28;20348;-67
2022/10/17 03:25:32;;;;;;;14.02;7.93;;;;;;;;;;4988790;28;20025;-67
2022/10/17 03:27:59;;;;;;;11.00;6.57;;;;;;;;;;4988752;28;20041;-67
2022/10/17 03:30:24;;;;;;;12.35;7.07;;;;;;;;;;4971098;28;20468;-67
2022/10/17 03:32:50;;;;;;;15.07;6.95;;;;;;;;;;4988612;28;20535;-67
2022/10/17 03:35:15;;;;;;;14.68;8.00;;;;;;;;;;4988661;28;20422;-67
2022/10/17 03:37:40;;;;;;;13.35;7.43;;;;;;;;;;4989555;28;20420;-67
2022/10/17 03:40:06;;;;;;;15.30;7.30;;;;;;;;;;4988594;28;20523;-67
2022/10/17 03:42:31;;;;;;;12.02;7.32;;;;;;;;;;4989530;28;20418;-67
2022/10/17 03:44:56;;;;;;;12.38;7.43;;;;;;;;;;4988520;28;20439;-67
2022/10/17 03:47:22;;;;;;;12.52;6.97;;;;;;;;;;4988368;28;20110;-67
2022/10/17 03:49:47;;;;;;;11.75;7.47;;;;;;;;;;4988325;28;20490;-67
2022/10/17 03:52:13;;;;;;;18.33;7.30;;;;;;;;;;4988195;28;20413;-67
2022/10/17 03:54:39;;;;;;;11.77;7.10;;;;;;;;;;4988457;28;20427;-67
2022/10/17 03:57:04;;;;;;;11.43;7.07;;;;;;;;;;4988164;28;20029;-67
2022/10/17 03:59:29;;;;;;;30.00;6.85;;;;;;;;;;4988273;28;20397;-67
2022/10/17 04:01:55;;;;;;;12.27;6.95;;;;;;;;;;4988112;28;20393;-67
2022/10/17 04:04:20;;;;;;;16.17;7.38;;;;;;;;;;4988320;28;20378;-67
2022/10/17 04:06:45;;;;;;;15.73;6.75;;;;;;;;;;4989316;28;20115;-67
2022/10/17 04:09:11;;;;;;;11.85;6.90;;;;;;;;;;4988111;28;20239;-68
2022/10/17 04:11:36;;;;;;;15.75;7.03;;;;;;;;;;4987914;28;20029;-67
2022/10/17 04:14:02;;;;;;;11.52;6.78;;;;;;;;;;4969949;28;20448;-67
2022/10/17 04:16:27;;;;;;;11.38;6.72;;;;;;;;;;4970239;28;20479;-67
2022/10/17 04:18:55;;;;;;;14.27;7.95;;;;;;;;;;4988989;28;20424;-67
2022/10/17 04:21:21;;;;;;;12.00;7.55;;;;;;;;;;4970017;28;20432;-67
2022/10/17 04:23:46;;;;;;;9.98;6.07;;;;;;;;;;4969794;28;20414;-67
2022/10/17 04:26:12;;;;;;;14.30;7.93;;;;;;;;;;4988022;28;20367;-67
2022/10/17 04:28:37;;;;;;;13.30;7.70;;;;;;;;;;4987863;28;20337;-67
2022/10/17 04:31:07;;;;;;;17.55;6.93;;;;;;;;;;4987745;28;20505;-67
2022/10/17 04:33:33;;;;;;;12.35;6.47;;;;;;;;;;4977437;28;20437;-67
2022/10/17 04:36:04;;;;;;;15.98;7.00;;;;;;;;;;4994272;28;20029;-67
2022/10/17 04:38:29;;;;;;;13.82;6.90;;;;;;;;;;4976214;28;20484;-67
2022/10/17 04:41:02;;;;;;;12.27;7.38;;;;;;;;;;4994338;28;20550;-67
2022/10/17 04:43:29;;;;;;;19.17;8.70;;;;;;;;;;4994052;28;20090;-67
2022/10/17 04:45:56;;;;;;;13.07;7.20;;;;;;;;;;4977021;28;20033;-67
2022/10/17 04:48:21;;;;;;;13.23;7.30;;;;;;;;;;4994171;28;20020;-67
2022/10/17 04:51:00;;;;;;;14.95;7.68;;;;;;;;;;4995097;28;20037;-67
2022/10/17 04:53:26;;;;;;;16.27;7.80;;;;;;;;;;4976145;28;20091;-67
2022/10/17 04:55:52;;;;;;;12.77;6.72;;;;;;;;;;4976132;28;20044;-67
2022/10/17 04:58:18;;;;;;;17.88;7.80;;;;;;;;;;4976077;28;20440;-67
2022/10/17 05:00:43;;;;;;;13.35;7.25;;;;;;;;;;4994351;28;20384;-67
2022/10/17 05:03:09;;;;;;;10.88;7.15;;;;;;;;;;4976374;28;20436;-67
2022/10/17 05:05:38;;;;;;;16.08;7.55;;;;;;;;;;4996048;28;20072;-67
2022/10/17 05:08:05;;;;;;;13.80;7.47;;;;;;;;;;4975976;28;20483;-67
2022/10/17 05:10:44;;;;;;;16.73;8.02;;;;;;;;;;4994506;28;20475;-67
2022/10/17 05:13:10;;;;;;;18.67;7.45;;;;;;;;;;4976940;28;20088;-67
2022/10/17 05:15:36;;;;;;;16.50;8.18;;;;;;;;;;4993937;28;20072;-67
2022/10/17 05:18:02;;;;;;;15.15;7.45;;;;;;;;;;4976089;28;20057;-67
2022/10/17 05:20:28;;;;;;;12.80;7.35;;;;;;;;;;4993913;28;20406;-67
2022/10/17 05:22:53;;;;;;;16.27;7.95;;;;;;;;;;4994280;28;20025;-67
2022/10/17 05:25:19;;;;;;;20.70;8.88;;;;;;;;;;4975875;28;20496;-67
2022/10/17 05:27:44;;;;;;;15.70;7.82;;;;;;;;;;4994547;28;20515;-67
2022/10/17 05:30:10;;;;;;;16.90;7.93;;;;;;;;;;4994220;28;20585;-67
2022/10/17 05:32:35;;;;;;;16.58;8.38;;;;;;;;;;4993724;28;20187;-67
2022/10/17 05:35:02;;;;;;;15.32;7.90;;;;;;;;;;4993979;28;20508;-67
2022/10/17 05:37:28;;;;;;;17.50;7.90;;;;;;;;;;4994704;28;20521;-67
2022/10/17 05:39:54;;;;;;;16.25;8.13;;;;;;;;;;4994009;28;20044;-67
2022/10/17 05:42:19;;;;;;;17.73;7.38;;;;;;;;;;4993567;28;20467;-67
2022/10/17 05:44:44;;;;;;;17.77;7.22;;;;;;;;;;4990852;28;20132;-67
2022/10/17 05:47:10;;;;;;;19.60;8.13;;;;;;;;;;4991635;28;20509;-67
2022/10/17 05:49:35;;;;;;;16.63;7.43;;;;;;;;;;4990778;28;20025;-67
2022/10/17 05:52:00;;;;;;;17.13;7.70;;;;;;;;;;4972516;28;20436;-67
2022/10/17 05:54:26;;;;;;;26.73;7.40;;;;;;;;;;4990415;28;20338;-67
2022/10/17 05:56:52;;;;;;;13.10;7.20;;;;;;;;;;4973036;28;20496;-67
2022/10/17 05:59:17;;;;;;;14.23;7.30;;;;;;;;;;4991537;28;20518;-67
2022/10/17 06:01:42;;;;;;;14.20;7.93;;;;;;;;;;4990759;28;20442;-67
2022/10/17 06:04:08;;;;;;;14.15;7.85;;;;;;;;;;4990406;28;20452;-67
2022/10/17 06:06:36;;;;;;;15.90;7.82;;;;;;;;;;4990236;28;20506;-67
2022/10/17 06:09:01;;;;;;;16.55;8.13;;;;;;;;;;4972725;28;20440;-67
2022/10/17 06:11:27;;;;;;;16.58;7.57;;;;;;;;;;4972014;28;20530;-67
2022/10/17 06:13:52;;;;;;;14.90;8.07;;;;;;;;;;4972398;28;20029;-67
2022/10/17 06:16:17;;;;;;;13.25;7.55;;;;;;;;;;4990831;28;20495;-67
2022/10/17 06:18:43;;;;;;;24.45;8.40;;;;;;;;;;4990353;28;20367;-67
2022/10/17 06:21:10;;;;;;;16.30;8.13;;;;;;;;;;4991325;28;20527;-67
2022/10/17 06:23:35;;;;;;;16.83;8.23;;;;;;;;;;4989938;28;20057;-67
2022/10/17 06:26:02;;;;;;;13.82;8.20;;;;;;;;;;4989625;28;20500;-67
2022/10/17 06:28:28;;;;;;;16.08;7.47;;;;;;;;;;4990021;28;20434;-67
2022/10/17 06:30:53;;;;;;;13.55;7.60;;;;;;;;;;4971583;28;20321;-67
2022/10/17 06:33:19;;;;;;;16.30;8.15;;;;;;;;;;4990974;28;20340;-67
2022/10/17 06:35:50;;;;;;;22.63;8.18;;;;;;;;;;4971790;28;20116;-67
2022/10/17 06:38:16;;;;;;;21.35;8.57;;;;;;;;;;4971765;28;20443;-67
2022/10/17 06:40:41;;;;;;;19.27;8.43;;;;;;;;;;4972963;28;20309;-67
2022/10/17 06:43:06;;;;;;;12.55;7.03;;;;;;;;;;4990754;28;20368;-67
2022/10/17 06:45:32;;;;;;;15.57;8.23;;;;;;;;;;4990664;28;20416;-67
2022/10/17 06:47:57;;;;;;;17.33;8.15;;;;;;;;;;4990016;28;20455;-67
2022/10/17 06:50:22;;;;;;;16.73;9.02;;;;;;;;;;4989939;28;20441;-67
2022/10/17 06:52:51;;;;;;;15.75;8.85;;;;;;;;;;4990480;28;20374;-67
2022/10/17 06:55:16;;;;;;;17.50;8.50;;;;;;;;;;4989131;28;20428;-67
2022/10/17 06:57:41;;;;;;;13.40;7.55;;;;;;;;;;4989335;28;20467;-67
2022/10/17 07:00:07;;;;;;;11.35;6.80;;;;;;;;;;4971339;28;20348;-67
2022/10/17 07:02:33;;;;;;;11.05;6.07;;;;;;;;;;4989857;28;20328;-67
2022/10/17 07:04:58;;;;;;;10.20;6.25;;;;;;;;;;4989228;28;20422;-67
2022/10/17 07:07:23;;;;;;;12.93;6.30;;;;;;;;;;4989253;28;20503;-67
2022/10/17 07:09:50;;;;;;;10.23;6.18;;;;;;;;;;4989109;28;20419;-67
2022/10/17 07:12:16;;;;;;;11.27;6.20;;;;;;;;;;4989945;28;20412;-67
2022/10/17 07:14:42;;;;;;;7.93;5.22;;;;;;;;;;4971947;28;20340;-67
2022/10/17 07:17:07;;;;;;;9.98;6.07;;;;;;;;;;4990145;28;20305;-66
2022/10/17 07:19:32;;;;;;;11.77;5.80;;;;;;;;;;4990002;28;20454;-67
2022/10/17 07:21:58;;;;;;;10.80;5.95;;;;;;;;;;4988987;28;20446;-67
2022/10/17 07:24:23;;;;;;;10.60;6.07;;;;;;;;;;4989400;28;20094;-67
2022/10/17 07:26:48;;;;;;;12.70;5.78;;;;;;;;;;4988822;28;20336;-66
2022/10/17 07:29:14;;;;;;;9.27;5.35;;;;;;;;;;4988667;28;20457;-67
2022/10/17 07:31:39;;;;;;;10.55;5.90;;;;;;;;;;4989587;28;20052;-67
2022/10/17 07:34:05;;;;;;;11.27;6.15;;;;;;;;;;4988611;28;20347;-67
2022/10/17 07:36:30;;;;;;;10.20;5.35;;;;;;;;;;4988685;28;20393;-67
2022/10/17 07:38:55;;;;;;;13.70;6.68;;;;;;;;;;4989417;28;20370;-67
2022/10/17 07:41:21;;;;;;;8.35;5.25;;;;;;;;;;4988660;28;20412;-66
2022/10/17 07:43:46;;;;;;;14.60;6.38;;;;;;;;;;4988513;28;20340;-67
2022/10/17 07:46:11;;;;;;;13.15;6.18;;;;;;;;;;4988523;28;20406;-66
2022/10/17 07:48:38;;;;;;;10.30;5.65;;;;;;;;;;4988235;28;20483;-67
2022/10/17 07:51:08;;;;;;;10.93;6.25;;;;;;;;;;4988524;28;20032;-67
2022/10/17 07:53:37;;;;;;;11.13;6.03;;;;;;;;;;4971345;28;20432;-67
2022/10/17 07:59:25;;;;;;;9.55;6.05;;;;;;;;;;4990815;28;20404;-66
2022/10/17 08:01:50;;;;;;;10.23;5.97;;;;;;;;;;4988097;28;20343;-67
2022/10/17 08:04:16;;;;;;;10.15;6.18;;;;;;;;;;4988307;28;20352;-67
2022/10/17 08:06:41;;;;;;;11.95;6.32;;;;;;;;;;4989451;28;20400;-66
2022/10/17 08:09:06;;;;;;;10.25;5.97;;;;;;;;;;4988322;28;20428;-67
2022/10/17 08:11:32;;;;;;;9.68;5.63;;;;;;;;;;4969922;28;20435;-66
2022/10/17 08:13:57;;;;;;;8.68;5.25;;;;;;;;;;4988081;28;20463;-66
2022/10/17 08:16:22;;;;;;;13.85;6.22;;;;;;;;;;4988147;28;20435;-66
2022/10/17 08:18:48;;;;;;;10.07;5.72;;;;;;;;;;4987854;28;20473;-66
2022/10/17 08:21:13;;;;;;;7.63;5.55;;;;;;;;;;4987834;28;20457;-66
2022/10/17 08:23:39;;;;;;;9.75;5.47;;;;;;;;;;4989002;28;20414;-67
2022/10/17 08:26:09;;;;;;;10.40;6.07;;;;;;;;;;4987972;28;20443;-66
2022/10/17 08:28:35;;;;;;;9.90;5.75;;;;;;;;;;4988909;28;20379;-66
2022/10/17 08:31:06;;;;;;;8.07;4.82;;;;;;;;;;4969733;28;20447;-66
2022/10/17 08:33:32;;;;;;;8.88;5.05;;;;;;;;;;4987975;28;20452;-66
2022/10/17 08:35:59;;;;;;;9.02;4.93;;;;;;;;;;4990956;28;20344;-66
2022/10/17 08:38:24;;;;;;;8.30;5.00;;;;;;;;;;4988097;28;20348;-66
2022/10/17 08:40:51;;;;;;;9.98;5.47;;;;;;;;;;4988817;28;20336;-66
2022/10/17 08:43:31;;;;;;;9.30;5.47;;;;;;;;;;4985872;28;20391;-66
2022/10/17 08:46:01;;;;;;;10.65;5.30;;;;;;;;;;4970261;28;20356;-66
2022/10/17 08:48:29;;;;;;;7.72;4.57;;;;;;;;;;4988580;28;20331;-66
2022/10/17 08:51:14;;;;;;;8.68;4.70;;;;;;;;;;4969962;28;20051;-66
2022/10/17 08:54:11;;;;;;;9.98;4.78;;;;;;;;;;4986910;28;20432;-66
2022/10/17 08:56:43;;;;;;;7.78;4.80;;;;;;;;;;4988070;28;20387;-66
2022/10/17 08:59:26;;;;;;;8.43;4.90;;;;;;;;;;4987775;28;20432;-66
2022/10/17 09:02:12;;;;;;;7.68;5.10;;;;;;;;;;4988209;28;20293;-66
2022/10/17 09:05:12;;;;;;;11.10;4.80;;;;;;;;;;4987535;28;20037;-66
2022/10/17 09:07:43;;;;;;;8.65;5.70;;;;;;;;;;4987589;28;20033;-66
2022/10/17 09:10:17;;;;;;;9.70;5.70;;;;;;;;;;4969833;28;20102;-66
2022/10/17 09:12:51;;;;;;;7.80;5.18;;;;;;;;;;4987366;28;20406;-66
2022/10/17 09:15:53;;;;;;;9.20;4.90;;;;;;;;;;4987570;28;20421;-66
2022/10/17 09:18:34;;;;;;;8.35;5.35;;;;;;;;;;4987581;28;20388;-66
2022/10/17 09:21:06;;;;;;;7.88;5.05;;;;;;;;;;4973300;28;20486;-66
2022/10/17 09:23:53;;;;;;;8.60;4.70;;;;;;;;;;4972965;28;20121;-66
2022/10/17 09:26:19;;;;;;;6.70;4.32;;;;;;;;;;4972743;28;20339;-66
2022/10/17 09:28:46;;;;;;;10.20;5.00;;;;;;;;;;4972732;28;20352;-66
2022/10/17 09:31:18;;;;;;;8.05;4.85;;;;;;;;;;4972753;28;20157;-67
2022/10/17 09:33:45;;;;;;;10.82;4.80;;;;;;;;;;4972737;28;20501;-67
2022/10/17 09:36:19;;;;;;;9.30;5.20;;;;;;;;;;4992728;28;20305;-67
2022/10/17 09:38:53;;;;;;;7.50;4.90;;;;;;;;;;4972754;28;20094;-66
2022/10/17 09:41:40;;;;;;;7.97;4.28;;;;;;;;;;4973306;28;20029;-66
2022/10/17 09:44:16;;;;;;;7.80;4.50;;;;;;;;;;4972621;28;20131;-66
2022/10/17 09:47:04;;;;;;;9.98;6.00;;;;;;;;;;4972770;28;20395;-66
2022/10/17 09:49:37;;;;;;;10.52;6.00;;;;;;;;;;4990806;28;20029;-66
2022/10/17 09:52:04;;;;;;;9.13;6.07;;;;;;;;;;4990325;28;20470;-66
2022/10/17 09:54:40;;;;;;;11.02;5.70;;;;;;;;;;4990439;28;20371;-66
2022/10/17 09:57:08;;;;;;;10.05;5.65;;;;;;;;;;4972606;28;20416;-66
2022/10/17 09:59:38;;;;;;;10.52;5.72;;;;;;;;;;4990740;28;20115;-66
2022/10/17 10:02:13;;;;;;;9.23;4.60;;;;;;;;;;4972513;28;20447;-66
2022/10/17 10:04:54;;;;;;;9.70;5.65;;;;;;;;;;4990889;28;20329;-66
2022/10/17 10:07:21;;;;;;;9.35;5.82;;;;;;;;;;4990241;28;20576;-66
2022/10/17 10:09:48;;;;;;;8.57;5.30;;;;;;;;;;4972614;28;20394;-66
2022/10/17 10:12:31;;;;;;;8.50;5.25;;;;;;;;;;4972525;28;20335;-67
2022/10/17 10:14:57;;;;;;;9.05;5.63;;;;;;;;;;4990163;28;20423;-66
2022/10/17 10:17:43;;;;;;;11.07;5.65;;;;;;;;;;4972028;28;20535;-66
2022/10/17 10:20:30;;;;;;;8.98;5.03;;;;;;;;;;4992166;28;20537;-66
2022/10/17 10:23:16;;;;;;;8.38;5.10;;;;;;;;;;4989868;28;20444;-66
2022/10/17 10:26:01;;;;;;;8.20;4.93;;;;;;;;;;4972024;28;20435;-66
2022/10/17 10:28:29;;;;;;;7.45;4.72;;;;;;;;;;4971902;28;20521;-66
2022/10/17 10:30:55;;;;;;;10.40;5.13;;;;;;;;;;4989464;28;20036;-66
2022/10/17 10:33:22;;;;;;;10.10;5.78;;;;;;;;;;4989783;28;20137;-66
2022/10/17 10:35:54;;;;;;;10.13;5.78;;;;;;;;;;4990253;28;20396;-66
2022/10/17 10:38:19;;;;;;;7.25;5.18;;;;;;;;;;4990274;28;20344;-66
2022/10/17 10:41:00;;;;;;;11.63;6.00;;;;;;;;;;4989540;28;20063;-67
2022/10/17 10:43:33;;;;;;;7.28;4.63;;;;;;;;;;4991172;28;20448;-66
2022/10/17 10:45:59;;;;;;;6.90;4.50;;;;;;;;;;4971690;28;20371;-66
2022/10/17 10:48:27;;;;;;;7.93;4.85;;;;;;;;;;4989405;28;20391;-67
2022/10/17 10:50:56;;;;;;;8.43;4.72;;;;;;;;;;4989317;28;20457;-67
2022/10/17 10:53:33;;;;;;;7.55;5.20;;;;;;;;;;4955145;28;20410;-66
2022/10/17 10:56:01;;;;;;;6.63;4.30;;;;;;;;;;4989386;28;20033;-66
2022/10/17 10:58:33;;;;;;;7.63;4.60;;;;;;;;;;4990428;28;20459;-67
2022/10/17 11:01:03;;;;;;;8.48;5.00;;;;;;;;;;4989340;28;20432;-67
2022/10/17 11:03:36;;;;;;;6.03;4.32;;;;;;;;;;4987984;28;20479;-67
2022/10/17 11:06:17;;;;;;;7.45;4.72;;;;;;;;;;4971136;28;20455;-67
2022/10/17 11:08:47;;;;;;;8.43;5.18;;;;;;;;;;4989086;28;20447;-67
2022/10/17 11:11:28;;;;;;;9.18;4.72;;;;;;;;;;4987597;28;20509;-66
2022/10/17 11:14:16;;;;;;;8.05;4.32;;;;;;;;;;4971476;28;20490;-66
2022/10/17 11:16:46;;;;;;;6.25;4.45;;;;;;;;;;4988881;28;20575;-66
2022/10/17 11:19:36;;;;;;;8.30;4.57;;;;;;;;;;4989319;28;20056;-67
2022/10/17 11:22:04;;;;;;;8.63;5.30;;;;;;;;;;4970790;28;20043;-66
2022/10/17 11:24:38;;;;;;;6.38;4.47;;;;;;;;;;4970850;28;20471;-66
2022/10/17 11:27:05;;;;;;;9.15;4.10;;;;;;;;;;4995552;28;20475;-67
2022/10/17 11:29:33;;;;;;;7.65;4.80;;;;;;;;;;5008360;28;20410;-66
2022/10/17 11:32:05;;;;;;;6.28;4.10;;;;;;;;;;4990287;28;20346;-66
2022/10/17 11:34:35;;;;;;;5.20;3.45;;;;;;;;;;5006818;28;20493;-67
2022/10/17 11:37:32;;;;;;;8.25;4.20;;;;;;;;;;4990418;28;20355;-67
2022/10/17 11:40:05;;;;;;;6.85;4.15;;;;;;;;;;5007445;28;20454;-67
2022/10/17 11:42:39;;;;;;;8.13;4.50;;;;;;;;;;4975869;28;20531;-66
2022/10/17 11:45:10;;;;;;;5.68;4.13;;;;;;;;;;4991036;28;20389;-67
2022/10/17 11:47:45;;;;;;;7.60;4.30;;;;;;;;;;4990435;28;20497;-67
2022/10/17 11:50:25;;;;;;;5.85;3.90;;;;;;;;;;4973294;28;20386;-67
2022/10/17 11:53:00;;;;;;;6.22;3.97;;;;;;;;;;5008021;28;20544;-67
2022/10/17 11:55:28;;;;;;;8.05;4.22;;;;;;;;;;4990381;28;20392;-67
2022/10/17 11:58:14;;;;;;;5.78;3.80;;;;;;;;;;5007886;28;20032;-67
2022/10/17 12:01:17;;;;;;;7.65;4.18;;;;;;;;;;4990213;28;20481;-67
2022/10/17 12:04:10;;;;;;;6.80;3.58;;;;;;;;;;5008262;28;20449;-66
2022/10/17 12:06:44;;;;;;;9.07;3.85;;;;;;;;;;5007848;28;20470;-67
2022/10/17 12:09:28;;;;;;;6.20;4.18;;;;;;;;;;5006250;28;20428;-66
2022/10/17 12:11:56;;;;;;;5.70;3.58;;;;;;;;;;4989748;28;20459;-67
2022/10/17 12:14:38;;;;;;;7.35;3.95;;;;;;;;;;5006583;28;20449;-67
2022/10/17 12:17:23;;;;;;;6.03;3.40;;;;;;;;;;5007764;28;20051;-67
2022/10/17 12:19:49;;;;;;;5.25;3.53;;;;;;;;;;5007859;28;20394;-66
2022/10/17 12:22:19;;;;;;;7.35;3.88;;;;;;;;;;5009433;28;20370;-66
2022/10/17 12:24:53;;;;;;;5.70;3.40;;;;;;;;;;5008278;28;20406;-67
2022/10/17 12:27:22;;;;;;;6.53;4.05;;;;;;;;;;4997229;28;20493;-66
2022/10/17 12:29:49;;;;;;;4.60;3.47;;;;;;;;;;4987916;28;20506;-66
2022/10/17 12:32:15;;;;;;;9.23;4.85;;;;;;;;;;4969791;28;20596;-67
2022/10/17 12:34:51;;;;;;;8.15;3.70;;;;;;;;;;4970652;28;20313;-67
2022/10/17 12:37:56;;;;;;;5.68;3.40;;;;;;;;;;4987851;28;20411;-67
2022/10/17 12:40:34;;;;;;;5.43;3.63;;;;;;;;;;4987578;28;20526;-66
2022/10/17 12:43:28;;;;;;;4.57;3.25;;;;;;;;;;4987513;28;20351;-67
2022/10/17 12:46:03;;;;;;;5.20;3.35;;;;;;;;;;4987667;28;20460;-66
2022/10/17 12:48:41;;;;;;;6.07;3.92;;;;;;;;;;4969648;28;20339;-67
2022/10/17 12:51:17;;;;;;;5.72;3.38;;;;;;;;;;4987594;28;20442;-67
2022/10/17 12:53:48;;;;;;;5.57;3.42;;;;;;;;;;4989895;28;20394;-67
2022/10/17 12:56:29;;;;;;;5.03;3.60;;;;;;;;;;4973554;28;20444;-66
2022/10/17 12:58:57;;;;;;;6.57;3.90;;;;;;;;;;4991493;28;20436;-67
2022/10/17 13:01:30;;;;;;;4.95;3.10;;;;;;;;;;4993453;28;20381;-66
2022/10/17 13:03:57;;;;;;;4.32;3.03;;;;;;;;;;4991370;28;20355;-67
2022/10/17 13:06:26;;;;;;;6.15;4.00;;;;;;;;;;4991326;28;20340;-66
2022/10/17 13:09:01;;;;;;;5.97;3.38;;;;;;;;;;4973576;28;20348;-67
2022/10/17 13:11:29;;;;;;;6.32;3.92;;;;;;;;;;4973326;28;20515;-67
2022/10/17 13:13:56;;;;;;;6.28;3.67;;;;;;;;;;4973350;28;20503;-67
2022/10/17 13:16:32;;;;;;;6.88;3.67;;;;;;;;;;4991691;28;20455;-66
2022/10/17 13:18:58;;;;;;;4.65;3.28;;;;;;;;;;4973207;28;20021;-67
2022/10/17 13:21:24;;;;;;;7.35;3.63;;;;;;;;;;4991272;28;20355;-66
2022/10/17 13:23:51;;;;;;;5.75;4.05;;;;;;;;;;4992481;28;20110;-66
2022/10/17 13:26:25;;;;;;;4.57;3.33;;;;;;;;;;4973061;28;20452;-66
2022/10/17 13:29:11;;;;;;;5.47;3.38;;;;;;;;;;4990920;28;20385;-66
2022/10/17 13:31:59;;;;;;;4.97;3.47;;;;;;;;;;4990585;28;20325;-66
2022/10/17 13:34:25;;;;;;;5.13;3.45;;;;;;;;;;4990942;28;20021;-66
2022/10/17 13:36:55;;;;;;;4.07;2.85;;;;;;;;;;4990733;28;20447;-66
2022/10/17 13:39:23;;;;;;;7.07;4.18;;;;;;;;;;4974116;28;20338;-66
2022/10/17 13:41:49;;;;;;;6.95;4.18;;;;;;;;;;4972970;28;20428;-66
2022/10/17 13:44:17;;;;;;;6.18;3.55;;;;;;;;;;4990692;28;20375;-66
2022/10/17 13:46:43;;;;;;;6.38;3.45;;;;;;;;;;4990934;28;20428;-66
2022/10/17 13:49:30;;;;;;;5.28;3.33;;;;;;;;;;4972492;28;20516;-66
2022/10/17 13:51:57;;;;;;;5.35;3.63;;;;;;;;;;4977111;28;20514;-66
2022/10/17 13:54:40;;;;;;;4.93;3.25;;;;;;;;;;4972989;28;20061;-67
2022/10/17 13:57:19;;;;;;;5.78;3.53;;;;;;;;;;4972577;28;20633;-66
2022/10/17 13:59:46;;;;;;;5.68;3.20;;;;;;;;;;4992472;28;20519;-66
2022/10/17 14:02:22;;;;;;;6.30;3.53;;;;;;;;;;4990237;28;20462;-66
2022/10/17 14:05:18;;;;;;;5.32;3.42;;;;;;;;;;4971503;28;20100;-66
2022/10/17 14:07:51;;;;;;;5.03;3.47;;;;;;;;;;4989437;28;20378;-66
2022/10/17 14:10:31;;;;;;;7.90;3.95;;;;;;;;;;4972021;28;20359;-66
2022/10/17 14:12:57;;;;;;;4.65;3.10;;;;;;;;;;4972373;28;20202;-66
2022/10/17 14:15:27;;;;;;;4.82;3.58;;;;;;;;;;4990057;28;20029;-66
2022/10/17 14:17:59;;;;;;;5.57;3.30;;;;;;;;;;4990458;28;20518;-66
2022/10/17 14:20:27;;;;;;;7.55;3.85;;;;;;;;;;4990257;28;20436;-66
2022/10/17 14:22:53;;;;;;;5.70;3.55;;;;;;;;;;4973634;28;20313;-66
2022/10/17 14:25:36;;;;;;;5.75;3.35;;;;;;;;;;4972001;28;20392;-66
2022/10/17 14:28:09;;;;;;;5.90;3.47;;;;;;;;;;4989539;28;20482;-66
2022/10/17 14:30:38;;;;;;;5.32;2.92;;;;;;;;;;4990142;28;20356;-66
2022/10/17 14:33:07;;;;;;;4.57;3.30;;;;;;;;;;4989859;28;20336;-66
2022/10/17 14:35:32;;;;;;;5.65;3.65;;;;;;;;;;4972144;28;20407;-66
2022/10/17 14:38:00;;;;;;;4.75;3.22;;;;;;;;;;4971652;28;20422;-66
2022/10/17 14:40:28;;;;;;;4.57;3.08;;;;;;;;;;4989812;28;20432;-66
2022/10/17 14:42:55;;;;;;;6.07;3.65;;;;;;;;;;4991655;28;20313;-66
2022/10/17 14:45:26;;;;;;;6.30;3.97;;;;;;;;;;4989578;28;20479;-66
2022/10/17 14:47:53;;;;;;;6.43;3.97;;;;;;;;;;4989397;28;20505;-66
2022/10/17 14:50:25;;;;;;;6.88;3.75;;;;;;;;;;4990793;28;20320;-66
2022/10/17 14:53:01;;;;;;;5.65;3.80;;;;;;;;;;4990541;28;20454;-66
2022/10/17 14:55:29;;;;;;;5.93;4.43;;;;;;;;;;4989396;28;20367;-66
2022/10/17 14:57:54;;;;;;;6.72;3.97;;;;;;;;;;4989213;28;20452;-66
2022/10/17 15:00:21;;;;;;;5.45;3.28;;;;;;;;;;4989134;28;20466;-66